Time;durP1;ratioP1;P1;durP2;ratioP2;P2;SDS_P1;SDS_P2;PMS_P1;PMS_P2;Temp;Humidity;BMP_temperature;BMP_pressure;BME280_temperature;BME280_humidity;BME280_pressure;Samples;Min_cycle;Max_cycle;Signal;HPM_P1;HPM_P2
2022/05/17 00:01:51;;;;;;;5.47;1.65;;;;;;;;;;5000241;28;20026;-66
2022/05/17 00:04:17;;;;;;;6.13;1.98;;;;;;;;;;5001650;28;20022;-66
2022/05/17 00:06:42;;;;;;;5.35;1.90;;;;;;;;;;5002283;28;20065;-64
2022/05/17 00:09:07;;;;;;;6.47;1.80;;;;;;;;;;5002318;28;20038;-66
2022/05/17 00:11:33;;;;;;;6.18;1.60;;;;;;;;;;5000556;28;20149;-66
2022/05/17 00:13:59;;;;;;;6.13;1.92;;;;;;;;;;5001395;28;20109;-64
2022/05/17 00:16:25;;;;;;;3.50;1.60;;;;;;;;;;5001827;28;20027;-64
2022/05/17 00:18:51;;;;;;;3.85;1.70;;;;;;;;;;5000162;28;20102;-65
2022/05/17 00:21:16;;;;;;;6.00;2.08;;;;;;;;;;5001207;28;20484;-66
2022/05/17 00:23:42;;;;;;;5.15;1.88;;;;;;;;;;5001902;28;20194;-65
2022/05/17 00:26:09;;;;;;;4.63;1.85;;;;;;;;;;5000083;28;20472;-66
2022/05/17 00:28:36;;;;;;;5.10;1.67;;;;;;;;;;5001370;28;20059;-63
2022/05/17 00:31:05;;;;;;;3.72;1.65;;;;;;;;;;4999912;28;20403;-67
2022/05/17 00:33:30;;;;;;;3.72;1.70;;;;;;;;;;4999783;28;20041;-66
2022/05/17 00:35:56;;;;;;;3.10;1.65;;;;;;;;;;5001326;28;20460;-66
2022/05/17 00:38:21;;;;;;;5.43;1.80;;;;;;;;;;5001411;28;20033;-66
2022/05/17 00:40:47;;;;;;;5.18;1.83;;;;;;;;;;5003202;28;20423;-65
2022/05/17 00:43:20;;;;;;;4.35;1.60;;;;;;;;;;5005238;28;20026;-65
2022/05/17 00:45:49;;;;;;;3.78;1.55;;;;;;;;;;5005083;28;20106;-63
2022/05/17 00:48:16;;;;;;;4.00;1.60;;;;;;;;;;5003505;28;20392;-63
2022/05/17 00:50:46;;;;;;;4.38;1.65;;;;;;;;;;5003934;28;20116;-66
2022/05/17 00:53:33;;;;;;;3.95;1.55;;;;;;;;;;5003303;28;20472;-63
2022/05/17 00:56:02;;;;;;;4.13;1.60;;;;;;;;;;5004182;28;20065;-64
2022/05/17 00:58:54;;;;;;;4.38;1.80;;;;;;;;;;5003025;28;20023;-66
2022/05/17 01:01:21;;;;;;;5.72;1.75;;;;;;;;;;5001118;28;20072;-63
2022/05/17 01:04:20;;;;;;;5.40;1.58;;;;;;;;;;4993408;28;20089;-64
2022/05/17 01:06:53;;;;;;;6.13;1.80;;;;;;;;;;5006004;28;20043;-66
2022/05/17 01:09:21;;;;;;;5.13;1.60;;;;;;;;;;5034545;28;20439;-66
2022/05/17 01:11:47;;;;;;;3.95;1.65;;;;;;;;;;5034543;28;20104;-64
2022/05/17 01:16:58;;;;;;;4.18;1.90;;;;;;;;;;5034632;28;20144;-64
2022/05/17 01:19:24;;;;;;;4.90;1.75;;;;;;;;;;5034186;28;20128;-63
2022/05/17 01:21:49;;;;;;;4.25;1.75;;;;;;;;;;5034545;28;20029;-66
2022/05/17 01:24:15;;;;;;;4.25;1.90;;;;;;;;;;5021071;28;20034;-63
2022/05/17 01:26:43;;;;;;;3.10;1.70;;;;;;;;;;5014559;28;20030;-63
2022/05/17 01:29:11;;;;;;;4.88;2.10;;;;;;;;;;5014395;28;20034;-64
2022/05/17 01:31:38;;;;;;;11.77;2.35;;;;;;;;;;5014699;28;20489;-66
2022/05/17 01:34:13;;;;;;;4.03;1.90;;;;;;;;;;5014608;28;20022;-67
2022/05/17 01:36:39;;;;;;;6.10;2.15;;;;;;;;;;5013939;28;20368;-62
2022/05/17 01:39:05;;;;;;;4.93;2.20;;;;;;;;;;5012951;28;20546;-63
2022/05/17 01:41:31;;;;;;;6.68;2.15;;;;;;;;;;5013708;28;20153;-63
2022/05/17 01:43:57;;;;;;;5.07;2.10;;;;;;;;;;5013578;28;20474;-63
2022/05/17 01:46:23;;;;;;;4.80;1.90;;;;;;;;;;5013661;28;20109;-66
2022/05/17 01:48:49;;;;;;;4.60;1.88;;;;;;;;;;5013661;28;20022;-63
2022/05/17 01:51:15;;;;;;;4.68;2.00;;;;;;;;;;5013335;28;20025;-65
2022/05/17 01:53:41;;;;;;;4.00;1.90;;;;;;;;;;5013773;28;20037;-66
2022/05/17 01:56:08;;;;;;;4.38;1.95;;;;;;;;;;5014251;28;20030;-65
2022/05/17 01:58:34;;;;;;;4.00;1.80;;;;;;;;;;5013919;28;20034;-62
2022/05/17 02:01:00;;;;;;;5.25;2.10;;;;;;;;;;5013446;28;20372;-64
2022/05/17 02:03:25;;;;;;;6.07;1.85;;;;;;;;;;5013442;28;20364;-64
2022/05/17 02:05:51;;;;;;;4.60;2.03;;;;;;;;;;5013713;28;20026;-65
2022/05/17 02:08:17;;;;;;;3.42;2.00;;;;;;;;;;5032904;28;20091;-64
2022/05/17 02:10:43;;;;;;;4.20;1.85;;;;;;;;;;5033536;28;20057;-64
2022/05/17 02:13:09;;;;;;;9.55;2.17;;;;;;;;;;5033486;28;20049;-67
2022/05/17 02:15:35;;;;;;;4.40;2.00;;;;;;;;;;5033581;28;20471;-66
2022/05/17 02:18:01;;;;;;;8.15;2.13;;;;;;;;;;5033655;28;20034;-67
2022/05/17 02:20:26;;;;;;;3.90;1.80;;;;;;;;;;5033129;28;20038;-66
2022/05/17 02:22:52;;;;;;;6.35;1.83;;;;;;;;;;5033348;28;20475;-63
2022/05/17 02:25:17;;;;;;;8.93;1.85;;;;;;;;;;5033475;28;20029;-63
2022/05/17 02:27:43;;;;;;;7.03;2.00;;;;;;;;;;5032772;28;20033;-67
2022/05/17 02:30:10;;;;;;;6.82;2.03;;;;;;;;;;5033276;28;20021;-67
2022/05/17 02:32:36;;;;;;;7.18;2.00;;;;;;;;;;5032706;28;20029;-63
2022/05/17 02:35:03;;;;;;;4.72;1.63;;;;;;;;;;5032570;28;20025;-66
2022/05/17 02:37:29;;;;;;;4.07;2.00;;;;;;;;;;5032580;28;20032;-66
2022/05/17 02:39:54;;;;;;;3.72;1.80;;;;;;;;;;5032381;28;20029;-64
2022/05/17 02:42:20;;;;;;;5.70;1.73;;;;;;;;;;5032734;28;20033;-65
2022/05/17 02:44:46;;;;;;;4.53;1.85;;;;;;;;;;5032889;28;20021;-66
2022/05/17 02:47:12;;;;;;;4.78;1.73;;;;;;;;;;5032887;28;20482;-66
2022/05/17 02:49:40;;;;;;;3.58;1.90;;;;;;;;;;5032857;28;20435;-67
2022/05/17 02:52:06;;;;;;;3.30;1.70;;;;;;;;;;5032827;28;20104;-65
2022/05/17 02:54:32;;;;;;;5.25;1.85;;;;;;;;;;5032871;28;20423;-65
2022/05/17 02:56:58;;;;;;;3.10;1.83;;;;;;;;;;5032485;28;20076;-66
2022/05/17 02:59:23;;;;;;;8.02;1.88;;;;;;;;;;5032563;28;20081;-64
2022/05/17 03:01:49;;;;;;;8.52;2.90;;;;;;;;;;5031937;28;20475;-66
2022/05/17 03:04:15;;;;;;;7.75;2.10;;;;;;;;;;5031980;28;20105;-65
2022/05/17 03:06:42;;;;;;;3.65;1.80;;;;;;;;;;5031801;28;20120;-67
2022/05/17 03:09:10;;;;;;;5.28;1.83;;;;;;;;;;5031915;28;20032;-65
2022/05/17 03:11:37;;;;;;;5.88;2.08;;;;;;;;;;5031857;28;20385;-67
2022/05/17 03:14:03;;;;;;;3.90;1.92;;;;;;;;;;5032667;28;20471;-66
2022/05/17 03:16:31;;;;;;;4.35;1.83;;;;;;;;;;5032573;28;20440;-69
2022/05/17 03:18:57;;;;;;;4.63;1.90;;;;;;;;;;5032342;28;20429;-64
2022/05/17 03:21:23;;;;;;;3.20;1.73;;;;;;;;;;5032252;28;20475;-62
2022/05/17 03:23:49;;;;;;;3.20;1.75;;;;;;;;;;5032340;28;20128;-67
2022/05/17 03:26:14;;;;;;;3.45;1.63;;;;;;;;;;5032103;28;20053;-66
2022/05/17 03:28:40;;;;;;;3.60;2.00;;;;;;;;;;5032363;28;20033;-66
2022/05/17 03:31:09;;;;;;;4.50;1.90;;;;;;;;;;5032556;28;20056;-67
2022/05/17 03:33:35;;;;;;;5.25;1.80;;;;;;;;;;5031710;28;20444;-67
2022/05/17 03:36:00;;;;;;;5.03;1.83;;;;;;;;;;5031714;28;20025;-65
2022/05/17 03:38:26;;;;;;;5.55;2.38;;;;;;;;;;5031668;28;20037;-65
2022/05/17 03:40:54;;;;;;;9.10;1.65;;;;;;;;;;5031230;28;20495;-66
2022/05/17 03:43:20;;;;;;;7.75;2.10;;;;;;;;;;5032209;28;20166;-67
2022/05/17 03:45:45;;;;;;;4.22;1.60;;;;;;;;;;5032112;28;20061;-67
2022/05/17 03:48:11;;;;;;;7.85;2.08;;;;;;;;;;5032184;28;20072;-65
2022/05/17 03:50:37;;;;;;;5.28;1.70;;;;;;;;;;5032185;28;20386;-66
2022/05/17 03:53:03;;;;;;;4.82;1.60;;;;;;;;;;5030821;28;20028;-65
2022/05/17 03:55:29;;;;;;;5.97;1.80;;;;;;;;;;5031889;28;20034;-66
2022/05/17 03:57:55;;;;;;;5.32;1.70;;;;;;;;;;5032095;28;20378;-62
2022/05/17 04:00:21;;;;;;;4.50;2.22;;;;;;;;;;5031545;28;20479;-66
2022/05/17 04:02:46;;;;;;;3.47;1.60;;;;;;;;;;5031382;28;20021;-66
2022/05/17 04:05:12;;;;;;;8.35;1.77;;;;;;;;;;5031329;28;20101;-63
2022/05/17 04:07:38;;;;;;;3.53;1.80;;;;;;;;;;5016138;28;20034;-66
2022/05/17 04:10:06;;;;;;;7.05;1.95;;;;;;;;;;5011823;28;20076;-66
2022/05/17 04:12:31;;;;;;;5.03;1.80;;;;;;;;;;5027810;28;20034;-66
2022/05/17 04:14:57;;;;;;;2.85;1.45;;;;;;;;;;5015989;28;20525;-66
2022/05/17 04:17:22;;;;;;;4.25;1.77;;;;;;;;;;5016030;28;20423;-66
2022/05/17 04:19:48;;;;;;;5.13;1.60;;;;;;;;;;5015653;28;20128;-67
2022/05/17 04:22:13;;;;;;;3.13;1.67;;;;;;;;;;5015954;28;20029;-67
2022/05/17 04:24:41;;;;;;;4.80;1.60;;;;;;;;;;5014173;28;20030;-68
2022/05/17 04:27:07;;;;;;;4.00;2.00;;;;;;;;;;5015454;28;20033;-67
2022/05/17 04:29:33;;;;;;;2.78;1.52;;;;;;;;;;5015514;28;20395;-67
2022/05/17 04:31:58;;;;;;;4.40;1.65;;;;;;;;;;5015235;28;20026;-63
2022/05/17 04:34:24;;;;;;;5.63;1.75;;;;;;;;;;5014908;28;20160;-66
2022/05/17 04:36:50;;;;;;;3.58;1.80;;;;;;;;;;5015225;28;20040;-67
2022/05/17 04:39:15;;;;;;;10.25;2.03;;;;;;;;;;5014898;28;20022;-67
2022/05/17 04:41:41;;;;;;;8.60;1.90;;;;;;;;;;5015528;28;20032;-67
2022/05/17 04:44:06;;;;;;;7.10;1.90;;;;;;;;;;5015485;28;20101;-67
2022/05/17 04:46:32;;;;;;;7.47;2.08;;;;;;;;;;5015259;28;20054;-66
2022/05/17 04:48:58;;;;;;;7.35;2.20;;;;;;;;;;5015225;28;20379;-67
2022/05/17 04:51:24;;;;;;;4.68;1.80;;;;;;;;;;5015266;28;20026;-64
2022/05/17 04:53:49;;;;;;;4.60;2.08;;;;;;;;;;5015203;28;20017;-65
2022/05/17 04:56:14;;;;;;;6.47;1.98;;;;;;;;;;5015343;28;20481;-64
2022/05/17 04:58:40;;;;;;;4.10;1.83;;;;;;;;;;5015243;28;20065;-67
2022/05/17 05:01:06;;;;;;;7.47;2.25;;;;;;;;;;5013386;28;20033;-67
2022/05/17 05:03:32;;;;;;;6.43;2.22;;;;;;;;;;5014477;28;20037;-67
2022/05/17 05:05:58;;;;;;;6.63;2.00;;;;;;;;;;5014236;28;20117;-64
2022/05/17 05:08:23;;;;;;;8.73;2.10;;;;;;;;;;5014186;28;20415;-67
2022/05/17 05:10:49;;;;;;;4.80;2.00;;;;;;;;;;5014735;28;20029;-65
2022/05/17 05:13:19;;;;;;;7.50;2.20;;;;;;;;;;5014775;28;20053;-64
2022/05/17 05:15:45;;;;;;;;;;;;;;;;;;5015224;28;20033;-67
2022/05/17 05:18:10;;;;;;;4.22;1.90;;;;;;;;;;5014965;28;19910;-67
2022/05/17 05:20:38;;;;;;;3.97;1.90;;;;;;;;;;5014433;28;20042;-67
2022/05/17 05:23:04;;;;;;;5.40;1.80;;;;;;;;;;5014576;28;20022;-64
2022/05/17 05:25:30;;;;;;;3.10;1.63;;;;;;;;;;5014085;28;20022;-66
2022/05/17 05:27:56;;;;;;;5.90;1.70;;;;;;;;;;5014496;28;20433;-68
2022/05/17 05:30:22;;;;;;;4.40;1.88;;;;;;;;;;5014313;28;20026;-65
2022/05/17 05:32:48;;;;;;;5.18;1.70;;;;;;;;;;5013682;28;20506;-65
2022/05/17 05:35:20;;;;;;;5.45;1.65;;;;;;;;;;5013484;28;20147;-68
2022/05/17 05:37:46;;;;;;;3.65;1.75;;;;;;;;;;5013704;28;20484;-67
2022/05/17 05:40:12;;;;;;;8.55;1.73;;;;;;;;;;5013687;28;20526;-64
2022/05/17 05:42:39;;;;;;;6.85;1.73;;;;;;;;;;5014113;28;20108;-66
2022/05/17 05:45:07;;;;;;;3.55;1.67;;;;;;;;;;5014155;28;20032;-67
2022/05/17 05:47:32;;;;;;;5.97;1.85;;;;;;;;;;5014054;28;20386;-65
2022/05/17 05:49:58;;;;;;;7.78;2.08;;;;;;;;;;5013881;28;20101;-64
2022/05/17 05:52:24;;;;;;;4.90;2.38;;;;;;;;;;5013847;28;20121;-66
2022/05/17 05:54:49;;;;;;;5.60;1.80;;;;;;;;;;5013909;28;20037;-67
2022/05/17 05:57:15;;;;;;;3.22;1.40;;;;;;;;;;5013963;28;20026;-65
2022/05/17 05:59:41;;;;;;;6.22;1.80;;;;;;;;;;5013676;28;20030;-68
2022/05/17 06:02:07;;;;;;;9.70;1.80;;;;;;;;;;5013188;28;20026;-66
2022/05/17 06:04:33;;;;;;;5.75;1.90;;;;;;;;;;5013081;28;20041;-67
2022/05/17 06:06:58;;;;;;;3.70;1.95;;;;;;;;;;5012914;28;20479;-66
2022/05/17 06:09:26;;;;;;;5.18;1.42;;;;;;;;;;5010134;28;20027;-67
2022/05/17 06:11:52;;;;;;;11.02;2.13;;;;;;;;;;5004276;28;20026;-63
2022/05/17 06:14:20;;;;;;;6.18;1.95;;;;;;;;;;5003946;28;20028;-64
2022/05/17 06:16:46;;;;;;;4.47;2.20;;;;;;;;;;5003454;28;20029;-64
2022/05/17 06:19:12;;;;;;;4.13;1.70;;;;;;;;;;5006267;28;20034;-64
2022/05/17 06:21:38;;;;;;;6.32;2.15;;;;;;;;;;5007051;28;20080;-64
2022/05/17 06:24:04;;;;;;;3.88;2.05;;;;;;;;;;5013298;28;20440;-67
2022/05/17 06:26:30;;;;;;;5.55;1.88;;;;;;;;;;5013054;28;20188;-64
2022/05/17 06:28:56;;;;;;;4.03;1.90;;;;;;;;;;5013264;28;20480;-65
2022/05/17 06:31:22;;;;;;;3.20;1.85;;;;;;;;;;5013532;28;20176;-67
2022/05/17 06:33:47;;;;;;;8.35;2.10;;;;;;;;;;5013135;28;20024;-67
2022/05/17 06:36:13;;;;;;;8.43;2.13;;;;;;;;;;5012564;28;20108;-64
2022/05/17 06:38:38;;;;;;;5.82;1.90;;;;;;;;;;5013387;28;20034;-66
2022/05/17 06:41:04;;;;;;;8.82;2.40;;;;;;;;;;5013094;28;20416;-67
2022/05/17 06:43:34;;;;;;;7.72;2.17;;;;;;;;;;5013245;28;20029;-63
2022/05/17 06:46:02;;;;;;;12.65;1.92;;;;;;;;;;5013444;28;20128;-66
2022/05/17 06:48:29;;;;;;;5.38;2.28;;;;;;;;;;5012706;28;20037;-66
2022/05/17 06:51:04;;;;;;;5.97;1.98;;;;;;;;;;5012737;28;20399;-64
2022/05/17 06:53:30;;;;;;;6.45;1.90;;;;;;;;;;5013083;28;20030;-64
2022/05/17 06:55:56;;;;;;;8.32;2.03;;;;;;;;;;5012984;28;20079;-65
2022/05/17 06:58:21;;;;;;;6.82;1.70;;;;;;;;;;5012901;28;20450;-63
2022/05/17 07:00:47;;;;;;;6.88;2.33;;;;;;;;;;5013020;28;20064;-65
2022/05/17 07:03:14;;;;;;;5.78;2.03;;;;;;;;;;5012666;28;20030;-67
2022/05/17 07:05:39;;;;;;;5.10;1.90;;;;;;;;;;5012835;28;20034;-64
2022/05/17 07:08:05;;;;;;;8.40;2.03;;;;;;;;;;5012672;28;20117;-65
2022/05/17 07:13:16;;;;;;;5.18;2.20;;;;;;;;;;5012871;28;20091;-68
2022/05/17 07:15:43;;;;;;;8.25;2.30;;;;;;;;;;5012825;28;20083;-66
2022/05/17 07:18:12;;;;;;;6.07;2.65;;;;;;;;;;5012701;28;20026;-68
2022/05/17 07:20:38;;;;;;;12.48;2.10;;;;;;;;;;5012343;28;20506;-64
2022/05/17 07:23:04;;;;;;;6.72;2.38;;;;;;;;;;5012546;28;20060;-67
2022/05/17 07:25:34;;;;;;;6.82;2.20;;;;;;;;;;5012614;28;20025;-68
2022/05/17 07:28:00;;;;;;;8.43;1.90;;;;;;;;;;5012500;28;20026;-68
2022/05/17 07:30:26;;;;;;;8.45;2.30;;;;;;;;;;5012360;28;20475;-67
2022/05/17 07:32:52;;;;;;;5.47;1.67;;;;;;;;;;5012115;28;20467;-68
2022/05/17 07:35:18;;;;;;;9.07;2.35;;;;;;;;;;5012563;28;20037;-68
2022/05/17 07:37:44;;;;;;;11.65;2.22;;;;;;;;;;5012890;28;20117;-67
2022/05/17 07:40:12;;;;;;;4.28;2.15;;;;;;;;;;5012633;28;20018;-68
2022/05/17 07:42:39;;;;;;;8.48;1.88;;;;;;;;;;5012499;28;20040;-68
2022/05/17 07:45:05;;;;;;;8.77;1.90;;;;;;;;;;5012453;28;20033;-68
2022/05/17 07:47:30;;;;;;;4.30;1.75;;;;;;;;;;5012878;28;20538;-67
2022/05/17 07:49:56;;;;;;;5.80;1.85;;;;;;;;;;5016464;28;20121;-68
2022/05/17 07:52:22;;;;;;;5.20;1.83;;;;;;;;;;5016317;28;20471;-68
2022/05/17 07:54:47;;;;;;;8.80;2.10;;;;;;;;;;5016447;28;20426;-68
2022/05/17 07:57:13;;;;;;;5.20;2.00;;;;;;;;;;5016203;28;20467;-68
2022/05/17 07:59:39;;;;;;;10.40;2.45;;;;;;;;;;5016146;28;20022;-67
2022/05/17 08:02:04;;;;;;;8.23;2.10;;;;;;;;;;5015998;28;20116;-67
2022/05/17 08:04:30;;;;;;;8.65;2.20;;;;;;;;;;5016045;28;20025;-67
2022/05/17 08:06:56;;;;;;;6.65;1.85;;;;;;;;;;5024838;28;20025;-65
2022/05/17 08:09:23;;;;;;;6.07;1.92;;;;;;;;;;5035557;28;20516;-65
2022/05/17 08:11:50;;;;;;;5.22;1.90;;;;;;;;;;5035769;28;20110;-62
2022/05/17 08:14:15;;;;;;;9.63;2.03;;;;;;;;;;5035644;28;20475;-64
2022/05/17 08:16:42;;;;;;;5.10;1.88;;;;;;;;;;5033928;28;20040;-65
2022/05/17 08:19:09;;;;;;;5.45;1.90;;;;;;;;;;5015901;28;20383;-65
2022/05/17 08:21:35;;;;;;;7.55;1.80;;;;;;;;;;5015482;28;20049;-64
2022/05/17 08:24:01;;;;;;;4.88;2.15;;;;;;;;;;5015966;28;20026;-65
2022/05/17 08:29:12;;;;;;;2.85;1.80;;;;;;;;;;5014747;28;20123;-62
2022/05/17 08:31:38;;;;;;;5.80;1.80;;;;;;;;;;5015515;28;20053;-64
2022/05/17 08:34:03;;;;;;;4.97;1.83;;;;;;;;;;5015475;28;20108;-62
2022/05/17 08:36:29;;;;;;;8.75;1.95;;;;;;;;;;5015508;28;20378;-64
2022/05/17 08:38:54;;;;;;;5.82;1.88;;;;;;;;;;5015068;28;20492;-64
2022/05/17 08:41:38;;;;;;;4.85;1.83;;;;;;;;;;5015375;28;20026;-65
2022/05/17 08:44:09;;;;;;;12.32;2.08;;;;;;;;;;5013891;28;20108;-63
2022/05/17 08:46:53;;;;;;;9.10;2.22;;;;;;;;;;5015208;28;20042;-66
2022/05/17 08:49:31;;;;;;;8.23;1.75;;;;;;;;;;5015249;28;20022;-65
2022/05/17 08:52:24;;;;;;;7.43;1.63;;;;;;;;;;5015204;28;20084;-67
2022/05/17 08:55:08;;;;;;;9.30;2.03;;;;;;;;;;5012721;28;20092;-65
2022/05/17 08:57:48;;;;;;;7.53;1.90;;;;;;;;;;5014782;28;20497;-65
2022/05/17 09:00:19;;;;;;;3.65;1.60;;;;;;;;;;5013733;28;20041;-64
2022/05/17 09:02:49;;;;;;;4.53;1.63;;;;;;;;;;5014945;28;20461;-66
2022/05/17 09:05:23;;;;;;;12.93;2.05;;;;;;;;;;5014915;28;20036;-66
2022/05/17 09:08:00;;;;;;;6.85;1.95;;;;;;;;;;5014512;28;20065;-65
2022/05/17 09:10:39;;;;;;;8.70;2.00;;;;;;;;;;5014655;28;20569;-66
2022/05/17 09:13:11;;;;;;;4.25;2.25;;;;;;;;;;5014503;28;20485;-63
2022/05/17 09:15:36;;;;;;;3.50;1.70;;;;;;;;;;5007599;28;20057;-63
2022/05/17 09:18:12;;;;;;;8.73;2.28;;;;;;;;;;5014280;28;20036;-63
2022/05/17 09:20:39;;;;;;;7.53;2.08;;;;;;;;;;5014414;28;20372;-65
2022/05/17 09:23:05;;;;;;;8.43;1.90;;;;;;;;;;5013978;28;20487;-65
2022/05/17 09:25:51;;;;;;;9.77;2.00;;;;;;;;;;5014353;28;20586;-65
2022/05/17 09:28:22;;;;;;;6.18;2.20;;;;;;;;;;5014200;28;20180;-66
2022/05/17 09:31:05;;;;;;;4.63;2.03;;;;;;;;;;5014599;28;20022;-62
2022/05/17 09:33:31;;;;;;;9.13;2.20;;;;;;;;;;5014216;28;20479;-65
2022/05/17 09:36:01;;;;;;;7.82;2.72;;;;;;;;;;5014335;28;20030;-66
2022/05/17 09:38:36;;;;;;;6.63;2.50;;;;;;;;;;5014548;28;20025;-66
2022/05/17 09:41:06;;;;;;;11.02;2.60;;;;;;;;;;5014482;28;20025;-65
2022/05/17 09:43:51;;;;;;;8.43;2.70;;;;;;;;;;5014115;28;20026;-65
2022/05/17 09:46:51;;;;;;;9.07;2.60;;;;;;;;;;5014006;28;20091;-66
2022/05/17 09:52:32;;;;;;;13.57;2.60;;;;;;;;;;5014519;28;20125;-66
2022/05/17 09:55:25;;;;;;;12.38;2.30;;;;;;;;;;5013876;28;20029;-66
2022/05/17 09:57:58;;;;;;;11.55;2.67;;;;;;;;;;5011214;28;20073;-64
2022/05/17 10:00:26;;;;;;;5.78;2.00;;;;;;;;;;5012649;28;20072;-65
2022/05/17 10:02:56;;;;;;;6.63;2.33;;;;;;;;;;5014225;28;20379;-64
2022/05/17 10:05:44;;;;;;;5.78;2.15;;;;;;;;;;5014092;28;20117;-63
2022/05/17 10:08:12;;;;;;;5.43;2.10;;;;;;;;;;5013340;28;20064;-63
2022/05/17 10:10:46;;;;;;;7.35;2.22;;;;;;;;;;5013663;28;20034;-67
2022/05/17 10:13:27;;;;;;;12.73;2.40;;;;;;;;;;5013838;28;20545;-66
2022/05/17 10:15:56;;;;;;;4.93;2.05;;;;;;;;;;5013919;28;20057;-63
2022/05/17 10:18:38;;;;;;;7.00;1.83;;;;;;;;;;5005828;28;20121;-62
2022/05/17 10:21:48;;;;;;;5.13;1.73;;;;;;;;;;5012911;28;20050;-62
2022/05/17 10:24:27;;;;;;;7.20;2.17;;;;;;;;;;5013562;28;20435;-62
2022/05/17 10:27:14;;;;;;;8.52;2.05;;;;;;;;;;5013534;28;20057;-62
2022/05/17 10:30:10;;;;;;;5.03;1.60;;;;;;;;;;5013536;28;20029;-66
2022/05/17 10:32:35;;;;;;;3.08;1.58;;;;;;;;;;5012914;28;20026;-63
2022/05/17 10:35:06;;;;;;;12.80;1.60;;;;;;;;;;5013393;28;20026;-62
2022/05/17 10:37:38;;;;;;;4.85;1.65;;;;;;;;;;5013509;28;20112;-65
2022/05/17 10:40:10;;;;;;;5.88;1.80;;;;;;;;;;5013202;28;20072;-62
2022/05/17 10:42:37;;;;;;;6.75;1.80;;;;;;;;;;5013318;28;20022;-62
2022/05/17 10:45:05;;;;;;;6.85;1.80;;;;;;;;;;5013183;28;20025;-65
2022/05/17 10:48:12;;;;;;;8.38;2.15;;;;;;;;;;5013186;28;20361;-66
2022/05/17 10:51:03;;;;;;;5.85;2.05;;;;;;;;;;4991209;28;20038;-62
2022/05/17 10:53:59;;;;;;;12.15;2.75;;;;;;;;;;4988526;28;20030;-62
2022/05/17 10:56:55;;;;;;;6.03;1.90;;;;;;;;;;4971519;28;20526;-65
2022/05/17 10:59:44;;;;;;;3.78;1.45;;;;;;;;;;4971405;28;20066;-63
2022/05/17 11:02:46;;;;;;;4.88;1.40;;;;;;;;;;4971477;28;20043;-65
2022/05/17 11:05:25;;;;;;;3.92;1.70;;;;;;;;;;4971938;28;20058;-64
2022/05/17 11:08:05;;;;;;;2.90;1.42;;;;;;;;;;4987692;28;20050;-62
2022/05/17 11:10:55;;;;;;;4.30;1.30;;;;;;;;;;4990832;28;20419;-66
2022/05/17 11:13:39;;;;;;;5.07;1.60;;;;;;;;;;4970975;28;20034;-62
2022/05/17 11:16:13;;;;;;;4.72;1.50;;;;;;;;;;4971519;28;20480;-62
2022/05/17 11:18:51;;;;;;;6.32;1.35;;;;;;;;;;4971639;28;20134;-62
2022/05/17 11:21:40;;;;;;;5.15;1.50;;;;;;;;;;4980859;28;20073;-62
2022/05/17 11:24:44;;;;;;;9.88;1.77;;;;;;;;;;4996033;28;20061;-67
2022/05/17 11:27:34;;;;;;;6.38;1.70;;;;;;;;;;5009007;28;20026;-65
2022/05/17 11:30:09;;;;;;;5.07;1.73;;;;;;;;;;5010032;28;20471;-66
2022/05/17 11:32:40;;;;;;;5.00;1.33;;;;;;;;;;5010212;28;20497;-65
2022/05/17 11:35:31;;;;;;;4.90;1.70;;;;;;;;;;5010240;28;20487;-67
2022/05/17 11:37:56;;;;;;;3.47;1.48;;;;;;;;;;5010621;28;20029;-66
2022/05/17 11:40:53;;;;;;;4.15;1.38;;;;;;;;;;5010819;28;20024;-67
2022/05/17 11:46:05;;;;;;;4.60;1.40;;;;;;;;;;5010871;28;20075;-66
2022/05/17 11:48:44;;;;;;;3.53;1.65;;;;;;;;;;5012439;28;20034;-64
2022/05/17 11:51:10;;;;;;;7.03;1.77;;;;;;;;;;5009441;28;20502;-62
2022/05/17 11:53:47;;;;;;;3.85;1.40;;;;;;;;;;5011395;28;20100;-64
2022/05/17 11:56:34;;;;;;;5.25;1.25;;;;;;;;;;5010020;28;20029;-65
2022/05/17 11:59:12;;;;;;;4.65;1.60;;;;;;;;;;5008380;28;20428;-67
2022/05/17 12:01:37;;;;;;;3.42;1.30;;;;;;;;;;5009126;28;20022;-66
2022/05/17 12:04:19;;;;;;;4.20;1.40;;;;;;;;;;5010507;28;20029;-63
2022/05/17 12:06:51;;;;;;;4.05;1.13;;;;;;;;;;5010583;28;20077;-65
2022/05/17 12:09:23;;;;;;;4.65;1.45;;;;;;;;;;5010600;28;20064;-65
2022/05/17 12:11:51;;;;;;;4.32;1.45;;;;;;;;;;5010285;28;20022;-65
2022/05/17 12:14:34;;;;;;;6.68;1.75;;;;;;;;;;5012048;28;20022;-65
2022/05/17 12:17:15;;;;;;;5.20;1.67;;;;;;;;;;5010471;28;20535;-63
2022/05/17 12:20:04;;;;;;;3.17;1.30;;;;;;;;;;5010957;28;20036;-63
2022/05/17 12:22:54;;;;;;;5.45;1.60;;;;;;;;;;5009861;28;20101;-62
2022/05/17 12:25:38;;;;;;;3.63;1.58;;;;;;;;;;5011892;28;20040;-67
2022/05/17 12:28:09;;;;;;;4.45;1.60;;;;;;;;;;5012187;28;20041;-65
2022/05/17 12:30:53;;;;;;;4.00;1.58;;;;;;;;;;5011883;28;20030;-66
2022/05/17 12:33:31;;;;;;;4.68;1.40;;;;;;;;;;5012036;28;20026;-67
2022/05/17 12:36:20;;;;;;;5.30;1.50;;;;;;;;;;5014378;28;20030;-67
2022/05/17 12:44:47;;;;;;;4.20;1.37;;;;;;;;;;5015354;28;20048;-65
2022/05/17 12:47:18;;;;;;;4.65;1.30;;;;;;;;;;5008768;28;20040;-63
2022/05/17 12:49:45;;;;;;;8.73;1.50;;;;;;;;;;5012267;28;20478;-64
2022/05/17 12:52:33;;;;;;;6.18;2.05;;;;;;;;;;5014740;28;20498;-63
2022/05/17 12:55:19;;;;;;;4.13;1.50;;;;;;;;;;5013942;28;20022;-62
2022/05/17 12:57:44;;;;;;;5.20;1.33;;;;;;;;;;5007535;28;20038;-67
2022/05/17 13:00:25;;;;;;;4.35;1.17;;;;;;;;;;5012879;28;20348;-66
2022/05/17 13:02:56;;;;;;;3.45;1.50;;;;;;;;;;5012438;28;20021;-63
2022/05/17 13:05:43;;;;;;;4.93;1.40;;;;;;;;;;5012483;28;20022;-67
2022/05/17 13:08:23;;;;;;;3.08;1.35;;;;;;;;;;5011867;28;20069;-65
2022/05/17 13:11:24;;;;;;;9.10;1.40;;;;;;;;;;5012429;28;20029;-64
2022/05/17 13:13:58;;;;;;;2.65;1.25;;;;;;;;;;5012406;28;20026;-66
2022/05/17 13:16:32;;;;;;;4.63;1.20;;;;;;;;;;5012365;28;20056;-63
2022/05/17 13:19:01;;;;;;;5.95;1.60;;;;;;;;;;5016714;28;20034;-62
2022/05/17 13:21:54;;;;;;;2.95;1.30;;;;;;;;;;5019043;28;20045;-66
2022/05/17 13:24:39;;;;;;;3.05;1.25;;;;;;;;;;5014981;28;20067;-63
2022/05/17 13:27:16;;;;;;;6.20;1.50;;;;;;;;;;5017581;28;20467;-64
2022/05/17 13:29:42;;;;;;;8.02;1.67;;;;;;;;;;5017389;28;20026;-64
2022/05/17 13:32:17;;;;;;;4.95;1.40;;;;;;;;;;5014487;28;20026;-65
2022/05/17 13:35:11;;;;;;;3.35;1.42;;;;;;;;;;5013999;28;20025;-63
2022/05/17 13:37:56;;;;;;;4.38;1.30;;;;;;;;;;5014242;28;20463;-63
2022/05/17 13:40:36;;;;;;;3.10;1.25;;;;;;;;;;5010421;28;20464;-67
2022/05/17 13:43:25;;;;;;;6.03;1.42;;;;;;;;;;5009563;28;20029;-67
2022/05/17 13:46:18;;;;;;;6.93;1.40;;;;;;;;;;5009578;28;20026;-63
2022/05/17 13:48:49;;;;;;;2.92;1.35;;;;;;;;;;5007729;28;20026;-63
2022/05/17 13:51:19;;;;;;;4.63;1.50;;;;;;;;;;5010594;28;20391;-64
2022/05/17 13:53:51;;;;;;;4.55;1.10;;;;;;;;;;5011669;28;20417;-66
2022/05/17 13:56:28;;;;;;;6.00;1.40;;;;;;;;;;5011161;28;20026;-64
2022/05/17 13:58:54;;;;;;;5.53;1.30;;;;;;;;;;5011362;28;20022;-65
2022/05/17 14:01:31;;;;;;;3.10;1.30;;;;;;;;;;5010507;28;20029;-62
2022/05/17 14:04:22;;;;;;;2.78;1.30;;;;;;;;;;5011374;28;20029;-67
2022/05/17 14:07:02;;;;;;;2.45;1.17;;;;;;;;;;5019907;23;20050;-68
2022/05/17 14:12:20;;;;;;;8.68;1.50;;;;;;;;;;4999377;28;20042;-65
2022/05/17 14:14:46;;;;;;;4.88;1.30;;;;;;;;;;4990222;28;20545;-68
2022/05/17 14:17:18;;;;;;;2.47;1.30;;;;;;;;;;4989542;28;20109;-68
2022/05/17 14:19:51;;;;;;;7.00;1.45;;;;;;;;;;4990771;28;20053;-65
2022/05/17 14:22:17;;;;;;;3.45;1.50;;;;;;;;;;4990657;28;20037;-66
2022/05/17 14:24:43;;;;;;;3.13;1.40;;;;;;;;;;4991252;28;20026;-64
2022/05/17 14:27:08;;;;;;;4.15;1.20;;;;;;;;;;4993051;28;20324;-67
2022/05/17 14:29:34;;;;;;;4.65;1.42;;;;;;;;;;4990603;28;20073;-64
2022/05/17 14:32:02;;;;;;;5.10;1.00;;;;;;;;;;4990734;28;20463;-69
2022/05/17 14:34:28;;;;;;;2.50;1.10;;;;;;;;;;4990246;28;20034;-68
2022/05/17 14:36:54;;;;;;;3.58;1.20;;;;;;;;;;4988761;28;20034;-66
2022/05/17 14:39:21;;;;;;;4.00;1.45;;;;;;;;;;4989512;28;20019;-63
2022/05/17 14:41:49;;;;;;;3.72;1.10;;;;;;;;;;4990455;28;20034;-68
2022/05/17 14:44:15;;;;;;;3.90;1.30;;;;;;;;;;4993660;28;20032;-64
2022/05/17 14:46:42;;;;;;;3.25;1.40;;;;;;;;;;4994789;28;20396;-67
2022/05/17 14:49:12;;;;;;;7.65;1.67;;;;;;;;;;4993094;28;20505;-64
2022/05/17 14:51:41;;;;;;;6.20;1.20;;;;;;;;;;4992515;28;20034;-67
2022/05/17 14:54:07;;;;;;;2.60;1.48;;;;;;;;;;4990294;28;20038;-64
2022/05/17 14:56:33;;;;;;;6.75;1.30;;;;;;;;;;4991043;28;20023;-64
2022/05/17 14:58:58;;;;;;;3.88;1.02;;;;;;;;;;4989549;28;20117;-64
2022/05/17 15:01:25;;;;;;;2.80;1.08;;;;;;;;;;4989769;28;20026;-67
2022/05/17 15:03:56;;;;;;;3.40;1.10;;;;;;;;;;4992495;28;20128;-64
2022/05/17 15:06:22;;;;;;;3.30;1.20;;;;;;;;;;4998486;28;20065;-68
2022/05/17 15:08:48;;;;;;;2.20;1.10;;;;;;;;;;4993756;28;20026;-68
2022/05/17 15:11:14;;;;;;;4.18;1.20;;;;;;;;;;4992004;28;20030;-68
2022/05/17 15:13:40;;;;;;;6.28;1.50;;;;;;;;;;4992192;28;20018;-68
2022/05/17 15:16:11;;;;;;;5.00;1.25;;;;;;;;;;4990453;28;20026;-68
2022/05/17 15:18:43;;;;;;;1.90;1.10;;;;;;;;;;4988728;28;20081;-67
2022/05/17 15:21:08;;;;;;;3.80;1.10;;;;;;;;;;4988478;28;20022;-65
2022/05/17 15:23:37;;;;;;;3.58;1.25;;;;;;;;;;4992174;28;20490;-67
2022/05/17 15:26:05;;;;;;;2.08;1.08;;;;;;;;;;4989982;28;20027;-67
2022/05/17 15:28:32;;;;;;;5.68;1.17;;;;;;;;;;4988975;28;20032;-65